Time;durP1;ratioP1;P1;durP2;ratioP2;P2;SDS_P1;SDS_P2;PMS_P1;PMS_P2;Temp;Humidity;BMP_temperature;BMP_pressure;BME280_temperature;BME280_humidity;BME280_pressure;Samples;Min_cycle;Max_cycle;Signal;HPM_P1;HPM_P2
2021/12/07 00:01:11;;;;;;;0.95;0.95;;;;;;;18.92;31.77;99747.72;5110432;28;20040;-56
2021/12/07 00:03:37;;;;;;;0.00;0.00;;;;;;;18.94;32.78;99742.22;5111008;28;20081;-56
2021/12/07 00:06:03;;;;;;;0.60;0.60;;;;;;;18.97;32.41;99741.03;5110973;28;20044;-55
2021/12/07 00:08:29;;;;;;;0.00;0.00;;;;;;;19.03;32.51;99751.06;5110746;28;20043;-54
2021/12/07 00:10:56;;;;;;;0.00;0.00;;;;;;;18.98;32.70;99742.69;5109569;28;20509;-53
2021/12/07 00:13:24;;;;;;;0.00;0.00;;;;;;;18.98;32.68;99735.50;5110809;28;20044;-55
2021/12/07 00:15:50;;;;;;;0.55;0.55;;;;;;;18.97;32.95;99730.31;5110967;28;20284;-56
2021/12/07 00:18:16;;;;;;;0.00;0.00;;;;;;;19.02;32.81;99722.59;5110933;28;20088;-55
2021/12/07 00:20:42;;;;;;;3.95;1.45;;;;;;;19.00;32.94;99722.75;5110967;28;20523;-53
2021/12/07 00:23:09;;;;;;;0.57;0.57;;;;;;;19.00;32.10;99725.41;5110763;28;20067;-54
2021/12/07 00:25:36;;;;;;;0.00;0.00;;;;;;;19.00;31.74;99719.22;5110781;28;20069;-52
2021/12/07 00:28:02;;;;;;;0.35;0.35;;;;;;;19.00;32.44;99713.88;5110578;28;20059;-53
2021/12/07 00:30:32;;;;;;;0.00;0.00;;;;;;;19.04;32.14;99704.47;5110674;28;20040;-51
2021/12/07 00:33:33;;;;;;;0.30;0.30;;;;;;;19.02;32.39;99712.69;5110272;28;20418;-55
2021/12/07 00:35:59;;;;;;;0.90;0.90;;;;;;;19.05;31.98;99703.47;5097547;28;20039;-56
2021/12/07 00:38:26;;;;;;;0.00;0.00;;;;;;;19.01;32.19;99694.09;5092600;28;20454;-55
2021/12/07 00:40:53;;;;;;;1.02;0.80;;;;;;;19.04;31.93;99693.75;5110561;28;20042;-53
2021/12/07 00:43:19;;;;;;;0.00;0.00;;;;;;;19.03;31.10;99692.09;5110804;28;20806;-57
2021/12/07 00:45:46;;;;;;;12.57;10.43;;;;;;;19.06;31.64;99695.25;5089048;28;20086;-57
2021/12/07 00:48:16;;;;;;;0.00;0.00;;;;;;;19.06;31.71;99691.75;5092555;28;20040;-56
2021/12/07 00:50:44;;;;;;;4.65;3.90;;;;;;;19.06;31.61;99675.66;5110004;28;20051;-57
2021/12/07 00:53:10;;;;;;;0.25;0.25;;;;;;;19.02;31.62;99667.13;5092463;28;20074;-55
2021/12/07 00:55:40;;;;;;;0.00;0.00;;;;;;;19.00;31.58;99666.44;5110844;28;20040;-57
2021/12/07 00:58:18;;;;;;;1.05;0.88;;;;;;;19.05;31.64;99663.25;5092025;28;20044;-50
2021/12/07 01:00:53;;;;;;;0.00;0.00;;;;;;;19.02;31.30;99663.63;5092127;28;20035;-53
2021/12/07 01:03:19;;;;;;;0.00;0.00;;;;;;;18.97;31.54;99655.25;5110389;28;20040;-57
2021/12/07 01:05:52;;;;;;;0.00;0.00;;;;;;;18.93;32.27;99652.09;5112616;28;20085;-53
2021/12/07 01:24:43;;;;;;;0.00;0.00;;;;;;;19.06;31.20;99654.22;5075650;28;20044;-56
2021/12/07 01:27:15;;;;;;;0.00;0.00;;;;;;;19.03;31.46;99638.50;5110097;28;20047;-55
2021/12/07 01:29:44;;;;;;;1.02;1.02;;;;;;;19.03;31.61;99633.13;5113274;28;20043;-56
2021/12/07 01:32:41;;;;;;;0.00;0.00;;;;;;;18.98;30.96;99622.06;5093926;28;20439;-56
2021/12/07 02:01:57;;;;;;;0.00;0.00;;;;;;;18.94;31.11;99581.41;5042534;28;20048;-54
2021/12/07 02:04:23;;;;;;;0.43;0.43;;;;;;;18.94;30.73;99585.91;5032297;28;20057;-55
2021/12/07 02:06:49;;;;;;;0.20;0.20;;;;;;;18.93;31.00;99574.38;5049139;28;20051;-55
2021/12/07 02:09:14;;;;;;;0.10;0.10;;;;;;;18.88;30.62;99566.00;5031136;28;20076;-55
2021/12/07 02:11:48;;;;;;;0.55;0.55;;;;;;;18.87;30.32;99569.69;5013468;28;20065;-54
2021/12/07 02:14:17;;;;;;;0.00;0.00;;;;;;;18.87;30.45;99567.00;5013213;28;20457;-53
2021/12/07 02:16:49;;;;;;;0.00;0.00;;;;;;;18.91;30.11;99563.81;5029323;28;20891;-55
2021/12/07 02:19:16;;;;;;;0.00;0.00;;;;;;;18.91;30.59;99566.47;5012972;28;20520;-54
2021/12/07 02:21:43;;;;;;;0.00;0.00;;;;;;;18.86;30.58;99568.81;5029684;28;20136;-50
2021/12/07 02:24:16;;;;;;;0.00;0.00;;;;;;;18.87;31.04;99562.47;5052648;28;20282;-55
2021/12/07 02:26:42;;;;;;;0.00;0.00;;;;;;;18.91;30.79;99550.41;5080142;28;20512;-56
2021/12/07 02:29:09;;;;;;;0.00;0.00;;;;;;;18.92;31.12;99557.44;5111444;28;20409;-55
2021/12/07 02:31:35;;;;;;;0.25;0.25;;;;;;;18.91;30.75;99554.94;5094290;28;20130;-53
2021/12/07 02:34:03;;;;;;;0.03;0.03;;;;;;;18.91;30.48;99553.09;5112209;28;20071;-56
2021/12/07 02:36:29;;;;;;;0.55;0.55;;;;;;;18.97;30.26;99550.72;5094397;28;20442;-51
2021/12/07 02:38:56;;;;;;;0.00;0.00;;;;;;;18.96;31.04;99546.38;5093689;28;20040;-55
2021/12/07 02:41:21;;;;;;;2.95;2.72;;;;;;;18.88;31.00;99548.06;5077004;28;20400;-55
2021/12/07 02:43:48;;;;;;;0.28;0.28;;;;;;;18.89;31.17;99541.69;5112534;28;20073;-56
2021/12/07 02:46:14;;;;;;;0.38;0.38;;;;;;;18.91;30.45;99536.19;5084074;28;20048;-55
2021/12/07 02:48:40;;;;;;;0.00;0.00;;;;;;;18.87;30.77;99532.97;5091614;28;20495;-52
2021/12/07 02:51:06;;;;;;;2.38;2.20;;;;;;;18.89;30.72;99532.78;5097299;28;20039;-55
2021/12/07 02:53:35;;;;;;;1.90;1.77;;;;;;;18.92;29.96;99530.63;5094096;28;20042;-57
2021/12/07 02:56:04;;;;;;;0.30;0.30;;;;;;;19.01;30.05;99527.91;5107720;28;20050;-57
2021/12/07 02:58:35;;;;;;;0.00;0.00;;;;;;;18.98;29.68;99522.91;5080203;28;20126;-57
2021/12/07 03:01:11;;;;;;;0.00;0.00;;;;;;;19.02;30.85;99521.56;5075911;28;20105;-57
2021/12/07 03:04:03;;;;;;;0.00;0.00;;;;;;;19.10;31.07;99521.47;5087377;28;20495;-57
2021/12/07 03:07:16;;;;;;;0.00;0.00;;;;;;;19.14;30.71;99509.41;5085789;28;20087;-56
2021/12/07 03:26:08;;;;;;;0.00;0.00;;;;;;;19.16;32.02;99469.00;5072917;28;20089;-57
2021/12/07 03:28:45;;;;;;;0.00;0.00;;;;;;;19.07;32.44;99462.88;5090628;28;20394;-54
2021/12/07 03:31:15;;;;;;;0.00;0.00;;;;;;;19.05;32.92;99454.16;5072728;28;20505;-55
2021/12/07 03:33:44;;;;;;;0.00;0.00;;;;;;;19.05;32.78;99449.66;5073005;28;20062;-57
2021/12/07 03:36:12;;;;;;;0.80;0.80;;;;;;;19.03;32.66;99450.84;5072827;28;20113;-55
2021/12/07 03:38:38;;;;;;;0.00;0.00;;;;;;;19.05;32.45;99438.94;5073290;28;20054;-57
2021/12/07 03:41:05;;;;;;;0.00;0.00;;;;;;;19.05;32.75;99441.63;5072461;28;20047;-53
2021/12/07 03:43:32;;;;;;;0.68;0.68;;;;;;;19.11;32.44;99437.38;5072772;28;20036;-56
2021/12/07 03:45:59;;;;;;;0.00;0.00;;;;;;;19.15;33.13;99433.34;5082203;28;20637;-58
2021/12/07 03:48:27;;;;;;;0.00;0.00;;;;;;;19.14;33.19;99431.66;5092939;28;20044;-58
2021/12/07 03:50:53;;;;;;;0.00;0.00;;;;;;;19.09;33.14;99434.06;5093179;28;20474;-57
2021/12/07 03:53:19;;;;;;;0.00;0.00;;;;;;;19.13;32.99;99427.31;5092542;28;20043;-57
2021/12/07 03:55:46;;;;;;;0.05;0.05;;;;;;;19.12;33.32;99428.31;5093096;28;20441;-56
2021/12/07 03:58:12;;;;;;;0.00;0.00;;;;;;;19.12;33.64;99424.81;5092698;28;20036;-57
2021/12/07 04:00:41;;;;;;;0.93;0.90;;;;;;;19.11;33.48;99421.28;5092744;28;20121;-58
2021/12/07 04:03:10;;;;;;;0.00;0.00;;;;;;;19.12;33.90;99414.09;5092548;28;20519;-58
2021/12/07 04:05:44;;;;;;;0.00;0.00;;;;;;;19.14;33.85;99426.31;5111113;28;20039;-58
2021/12/07 04:08:13;;;;;;;2.17;2.08;;;;;;;19.13;33.81;99405.84;5092179;28;20500;-56
2021/12/07 04:10:41;;;;;;;0.00;0.00;;;;;;;19.09;33.81;99407.25;5111133;28;20122;-56
2021/12/07 04:13:07;;;;;;;0.00;0.00;;;;;;;19.06;33.70;99415.63;5110852;28;20078;-57
2021/12/07 04:15:33;;;;;;;0.00;0.00;;;;;;;19.07;33.68;99411.94;5092605;28;20255;-58
2021/12/07 04:17:59;;;;;;;0.00;0.00;;;;;;;19.12;34.76;99393.47;5092529;28;20085;-57
2021/12/07 04:20:25;;;;;;;0.00;0.00;;;;;;;19.17;31.38;99393.75;5075718;28;20423;-57
2021/12/07 04:22:51;;;;;;;0.00;0.00;;;;;;;19.17;31.44;99388.38;5092690;28;20039;-56
2021/12/07 04:25:17;;;;;;;0.00;0.00;;;;;;;19.19;30.99;99364.91;5110749;28;20040;-57
2021/12/07 04:27:44;;;;;;;0.00;0.00;;;;;;;19.20;30.40;99371.94;5110558;28;20052;-58
2021/12/07 04:30:22;;;;;;;0.00;0.00;;;;;;;19.18;30.34;99370.47;5110470;28;20045;-59
2021/12/07 04:32:48;;;;;;;0.00;0.00;;;;;;;19.18;30.83;99363.25;5110679;28;20714;-59
2021/12/07 04:35:15;;;;;;;0.00;0.00;;;;;;;19.17;30.86;99356.22;5110707;28;20403;-59
2021/12/07 04:37:41;;;;;;;0.32;0.32;;;;;;;19.18;31.73;99362.44;5110714;28;20048;-58
2021/12/07 04:40:10;;;;;;;0.00;0.00;;;;;;;19.19;31.72;99348.84;5112994;28;20107;-57
2021/12/07 04:42:36;;;;;;;0.50;0.50;;;;;;;19.19;31.93;99354.19;5096391;28;20123;-59
2021/12/07 04:45:04;;;;;;;0.00;0.00;;;;;;;19.20;31.86;99352.34;5113001;28;20044;-58
2021/12/07 04:47:43;;;;;;;0.10;0.10;;;;;;;19.24;31.32;99341.06;5094238;28;20135;-58
2021/12/07 04:58:15;;;;;;;0.00;0.00;;;;;;;19.21;31.32;99317.28;5093667;28;20382;-59
2021/12/07 05:00:41;;;;;;;0.00;0.00;;;;;;;19.20;31.25;99318.34;5093422;28;20113;-58
2021/12/07 05:03:12;;;;;;;0.22;0.22;;;;;;;19.22;30.33;99310.91;5075242;28;20048;-58
2021/12/07 05:05:44;;;;;;;0.00;0.00;;;;;;;19.23;30.21;99320.63;5093810;28;20071;-59
2021/12/07 05:08:13;;;;;;;0.52;0.20;;;;;;;19.29;30.27;99311.03;5093186;28;20100;-57
2021/12/07 05:39:50;;;;;;;5.38;0.95;;;;;;;19.22;29.71;99294.84;5010616;28;20042;-57
2021/12/07 05:42:16;;;;;;;1.38;1.10;;;;;;;19.23;29.77;99285.78;5010407;28;20057;-58
2021/12/07 05:44:42;;;;;;;0.00;0.00;;;;;;;19.27;29.90;99288.09;5010420;28;20148;-58
2021/12/07 05:47:09;;;;;;;0.00;0.00;;;;;;;19.31;29.81;99286.72;5029458;28;20123;-58
2021/12/07 05:49:35;;;;;;;0.00;0.00;;;;;;;19.33;29.65;99285.50;5029887;28;20041;-58
2021/12/07 05:52:02;;;;;;;0.47;0.47;;;;;;;19.31;29.68;99275.97;5029644;28;20082;-58
2021/12/07 05:54:28;;;;;;;0.00;0.00;;;;;;;19.35;29.45;99278.13;5029982;28;20517;-59
2021/12/07 05:56:53;;;;;;;0.00;0.00;;;;;;;19.40;29.56;99283.75;5030225;28;20045;-59
2021/12/07 05:59:20;;;;;;;0.00;0.00;;;;;;;19.41;29.61;99276.53;5029841;28;20142;-58
2021/12/07 06:01:46;;;;;;;0.20;0.20;;;;;;;19.40;29.32;99280.22;5030128;28;20513;-58
2021/12/07 06:04:12;;;;;;;0.00;0.00;;;;;;;19.46;29.23;99274.13;5029532;28;20051;-59
2021/12/07 06:06:38;;;;;;;0.00;0.00;;;;;;;19.47;29.38;99286.50;5030049;28;20061;-58
2021/12/07 06:09:04;;;;;;;0.00;0.00;;;;;;;19.43;29.34;99274.50;5029948;28;20064;-58
2021/12/07 06:11:30;;;;;;;0.00;0.00;;;;;;;19.42;29.40;99272.84;5029544;28;20692;-58
2021/12/07 06:13:56;;;;;;;0.52;0.52;;;;;;;19.44;29.28;99272.63;5087547;28;20055;-58
2021/12/07 06:16:24;;;;;;;0.00;0.00;;;;;;;19.45;29.13;99271.63;5112751;28;20044;-58
2021/12/07 06:18:50;;;;;;;0.00;0.00;;;;;;;19.43;29.14;99279.88;5112820;28;20126;-58
2021/12/07 06:21:16;;;;;;;0.00;0.00;;;;;;;19.46;29.25;99279.47;5112714;28;20083;-58
2021/12/07 06:23:42;;;;;;;1.08;1.08;;;;;;;19.44;29.09;99281.53;5112739;28;20507;-58
2021/12/07 06:26:08;;;;;;;0.00;0.00;;;;;;;19.45;28.95;99285.03;5112861;28;20046;-58
2021/12/07 06:28:34;;;;;;;0.00;0.00;;;;;;;19.46;29.06;99282.16;5112435;28;20055;-58
2021/12/07 06:31:00;;;;;;;0.00;0.00;;;;;;;19.54;28.86;99275.88;5112884;28;20080;-58
2021/12/07 06:33:27;;;;;;;0.00;0.00;;;;;;;19.55;29.15;99267.66;5112459;28;20035;-58
2021/12/07 06:35:57;;;;;;;0.10;0.10;;;;;;;19.55;28.77;99285.56;5112358;28;20458;-58
2021/12/07 06:38:28;;;;;;;0.00;0.00;;;;;;;19.56;28.87;99272.00;5112190;28;20040;-58
2021/12/07 06:40:55;;;;;;;0.00;0.00;;;;;;;19.58;28.79;99276.31;5112474;28;20772;-58
2021/12/07 06:43:21;;;;;;;0.08;0.08;;;;;;;19.60;28.61;99272.47;5094041;28;20138;-58
2021/12/07 06:45:48;;;;;;;0.00;0.00;;;;;;;19.60;28.83;99269.78;5104174;28;20115;-58
2021/12/07 06:48:14;;;;;;;0.00;0.00;;;;;;;19.64;28.54;99264.84;5073801;28;20044;-58
2021/12/07 06:50:40;;;;;;;0.00;0.00;;;;;;;19.64;28.30;99254.09;5092124;28;20218;-59
2021/12/07 06:53:06;;;;;;;0.00;0.00;;;;;;;19.67;28.71;99256.44;5091950;28;20557;-59
2021/12/07 06:55:32;;;;;;;0.00;0.00;;;;;;;19.72;28.52;99254.00;5073402;28;20051;-58
2021/12/07 06:58:00;;;;;;;0.00;0.00;;;;;;;19.71;28.44;99246.97;5073846;28;20051;-58
2021/12/07 07:00:26;;;;;;;0.00;0.00;;;;;;;19.70;28.48;99253.34;5091711;28;20132;-57
2021/12/07 07:02:52;;;;;;;0.70;0.70;;;;;;;19.67;28.44;99248.38;5091580;28;20112;-58
2021/12/07 07:05:18;;;;;;;0.00;0.00;;;;;;;19.71;28.77;99249.66;5091475;28;20036;-58
2021/12/07 07:07:44;;;;;;;0.00;0.00;;;;;;;19.70;28.35;99231.88;5091464;28;20075;-57
2021/12/07 07:10:16;;;;;;;0.15;0.15;;;;;;;19.71;28.48;99244.28;5073444;28;20040;-58
2021/12/07 07:12:42;;;;;;;0.00;0.00;;;;;;;19.70;28.19;99258.72;5073720;28;20047;-59
2021/12/07 07:15:09;;;;;;;0.00;0.00;;;;;;;19.71;28.30;99250.50;5091678;28;20047;-59
2021/12/07 07:17:36;;;;;;;0.00;0.00;;;;;;;19.72;28.27;99262.88;5091376;28;20074;-58
2021/12/07 07:20:04;;;;;;;0.00;0.00;;;;;;;19.75;28.02;99268.91;5091342;28;20105;-58
2021/12/07 07:22:29;;;;;;;0.00;0.00;;;;;;;19.80;28.30;99258.44;5091245;28;20185;-58
2021/12/07 07:24:55;;;;;;;0.00;0.00;;;;;;;19.75;28.37;99250.97;5091477;28;20122;-59
2021/12/07 07:27:21;;;;;;;0.00;0.00;;;;;;;19.80;28.31;99248.53;5091258;28;20056;-58
2021/12/07 07:29:47;;;;;;;0.98;0.98;;;;;;;19.76;28.10;99241.06;5091207;28;20037;-57
2021/12/07 07:32:13;;;;;;;0.10;0.10;;;;;;;19.83;28.01;99247.38;5091223;28;20177;-56
2021/12/07 07:34:39;;;;;;;0.00;0.00;;;;;;;19.80;28.01;99237.81;5091327;28;20078;-59
2021/12/07 07:37:05;;;;;;;0.00;0.00;;;;;;;19.79;28.16;99236.13;5091227;28;20044;-57
2021/12/07 07:39:32;;;;;;;0.00;0.00;;;;;;;19.83;28.04;99226.72;5091259;28;20040;-58
2021/12/07 07:41:58;;;;;;;0.00;0.00;;;;;;;19.92;27.99;99234.66;5091273;28;20411;-57
2021/12/07 07:44:37;;;;;;;0.30;0.30;;;;;;;19.98;27.95;99228.53;5072911;28;20051;-57
2021/12/07 07:47:04;;;;;;;0.00;0.00;;;;;;;20.02;27.78;99240.53;5109838;28;20044;-57
2021/12/07 07:49:30;;;;;;;0.00;0.00;;;;;;;20.03;27.70;99239.53;5111075;28;20418;-58
2021/12/07 07:51:55;;;;;;;0.00;0.00;;;;;;;19.95;27.73;99224.38;5093400;28;20047;-58
2021/12/07 07:54:21;;;;;;;0.00;0.00;;;;;;;19.93;27.60;99225.59;5111345;28;20122;-58
2021/12/07 07:56:47;;;;;;;0.60;0.60;;;;;;;19.98;27.74;99223.16;5093119;28;20043;-58
2021/12/07 07:59:13;;;;;;;0.00;0.00;;;;;;;20.05;27.79;99224.06;5111428;28;20055;-57
2021/12/07 08:01:39;;;;;;;0.00;0.00;;;;;;;20.06;27.21;99233.75;5111452;28;20130;-57
2021/12/07 08:04:05;;;;;;;0.00;0.00;;;;;;;20.11;27.50;99225.13;5111608;28;20039;-59
2021/12/07 08:06:31;;;;;;;5.40;5.20;;;;;;;20.16;27.47;99215.50;5111280;28;20052;-58
2021/12/07 08:08:57;;;;;;;0.00;0.00;;;;;;;20.16;27.28;99218.19;5093450;28;20054;-60
2021/12/07 08:11:24;;;;;;;0.15;0.15;;;;;;;20.16;27.33;99217.34;5111112;28;20043;-59
2021/12/07 08:13:50;;;;;;;0.00;0.00;;;;;;;20.16;27.39;99215.50;5112670;28;20055;-57
2021/12/07 08:16:17;;;;;;;0.40;0.40;;;;;;;20.17;27.25;99205.56;5097141;28;20043;-57
2021/12/07 08:18:44;;;;;;;0.00;0.00;;;;;;;20.20;27.38;99197.16;5115413;28;20699;-58
2021/12/07 08:21:10;;;;;;;0.00;0.00;;;;;;;20.22;27.00;99196.94;5115537;28;20040;-59
2021/12/07 08:23:38;;;;;;;0.00;0.00;;;;;;;20.25;27.20;99196.53;5115317;28;20112;-58
2021/12/07 08:26:05;;;;;;;0.10;0.10;;;;;;;20.27;27.34;99195.31;5115467;28;20052;-57
2021/12/07 08:28:32;;;;;;;0.00;0.00;;;;;;;20.30;27.17;99204.84;5114991;28;20150;-58
2021/12/07 08:30:58;;;;;;;0.00;0.00;;;;;;;20.27;26.77;99211.44;5115199;28;20111;-57
2021/12/07 08:33:24;;;;;;;0.00;0.00;;;;;;;20.28;26.98;99201.53;5114657;28;20104;-58
2021/12/07 08:35:50;;;;;;;0.00;0.00;;;;;;;20.27;27.13;99205.25;5096804;28;20457;-58
2021/12/07 08:38:16;;;;;;;0.00;0.00;;;;;;;20.26;27.07;99203.59;5115173;28;20142;-58
2021/12/07 08:40:42;;;;;;;0.00;0.00;;;;;;;20.22;27.40;99191.56;5115193;28;20052;-58
2021/12/07 08:43:11;;;;;;;0.00;0.00;;;;;;;20.22;27.20;99183.53;5115010;28;20071;-58
2021/12/07 08:45:40;;;;;;;0.00;0.00;;;;;;;20.18;27.22;99175.84;5107871;28;20055;-58
2021/12/07 08:48:06;;;;;;;0.20;0.20;;;;;;;20.13;27.10;99167.53;5094185;28;20039;-58
2021/12/07 08:50:32;;;;;;;0.00;0.00;;;;;;;20.16;27.49;99171.69;5094069;28;20493;-57
2021/12/07 08:53:03;;;;;;;0.00;0.00;;;;;;;20.13;27.47;99177.47;5094340;28;20047;-58
2021/12/07 09:01:01;;;;;;;0.00;0.00;;;;;;;20.16;27.20;99169.84;5076283;28;20074;-58
2021/12/07 09:03:27;;;;;;;0.00;0.00;;;;;;;20.18;27.10;99157.03;5093816;28;20504;-59
2021/12/07 09:05:53;;;;;;;0.00;0.00;;;;;;;20.24;27.14;99163.50;5094119;28;20036;-57
2021/12/07 09:08:19;;;;;;;0.00;0.00;;;;;;;20.26;27.18;99156.09;5093851;28;20055;-58
2021/12/07 09:10:45;;;;;;;0.00;0.00;;;;;;;20.23;27.41;99151.09;5075412;28;20488;-58
2021/12/07 09:13:11;;;;;;;0.00;0.00;;;;;;;20.23;27.34;99158.34;5093981;28;20132;-58
2021/12/07 09:15:37;;;;;;;0.00;0.00;;;;;;;20.27;27.25;99173.84;5093745;28;20062;-58
2021/12/07 09:18:03;;;;;;;0.00;0.00;;;;;;;20.24;27.22;99157.28;5093813;28;20528;-58
2021/12/07 09:20:30;;;;;;;0.00;0.00;;;;;;;20.25;27.20;99149.06;5093791;28;20389;-57
2021/12/07 09:22:57;;;;;;;0.00;0.00;;;;;;;20.27;27.09;99146.97;5093800;28;20044;-57
2021/12/07 09:25:23;;;;;;;0.00;0.00;;;;;;;20.28;27.25;99147.84;5092291;28;20470;-56
2021/12/07 09:27:50;;;;;;;0.00;0.00;;;;;;;20.24;27.28;99146.53;5093558;28;20091;-58
2021/12/07 09:30:19;;;;;;;0.70;0.70;;;;;;;20.24;27.27;99144.69;5093808;28;20378;-58
2021/12/07 09:32:45;;;;;;;0.00;0.00;;;;;;;20.24;27.17;99146.53;5075747;28;20040;-58
2021/12/07 09:35:12;;;;;;;0.00;0.00;;;;;;;20.22;27.27;99135.19;5093791;28;20514;-58
2021/12/07 09:37:38;;;;;;;0.00;0.00;;;;;;;20.22;27.34;99132.50;5058749;28;20071;-55
2021/12/07 09:40:07;;;;;;;0.00;0.00;;;;;;;20.16;27.42;99145.69;5093436;28;20044;-58
2021/12/07 09:42:32;;;;;;;4.30;3.92;;;;;;;20.16;27.40;99140.31;5093347;28;20040;-57
2021/12/07 09:44:58;;;;;;;0.00;0.00;;;;;;;20.14;27.29;99128.91;5093483;28;20396;-57
2021/12/07 09:47:24;;;;;;;0.15;0.15;;;;;;;20.17;27.28;99135.75;5093057;28;20051;-57
2021/12/07 09:49:51;;;;;;;0.00;0.00;;;;;;;20.14;27.28;99131.59;5092799;28;20400;-58
2021/12/07 09:52:16;;;;;;;0.93;0.93;;;;;;;20.18;27.34;99130.19;5093092;28;20044;-58
2021/12/07 09:54:42;;;;;;;0.00;0.00;;;;;;;20.19;27.31;99134.53;5092972;28;20523;-59
2021/12/07 09:57:08;;;;;;;0.00;0.00;;;;;;;20.18;27.15;99118.63;5093220;28;20036;-58
2021/12/07 09:59:34;;;;;;;0.00;0.00;;;;;;;20.21;27.29;99131.66;5092794;28;20094;-57
2021/12/07 10:02:00;;;;;;;0.00;0.00;;;;;;;20.20;27.28;99124.66;5099917;28;20388;-61
2021/12/07 10:04:27;;;;;;;0.00;0.00;;;;;;;20.18;27.23;99130.19;5112385;28;20048;-54
2021/12/07 10:06:54;;;;;;;0.00;0.00;;;;;;;20.16;27.39;99131.41;5112046;28;20039;-60
2021/12/07 10:09:21;;;;;;;0.00;0.00;;;;;;;20.11;27.44;99126.63;5112771;28;20130;-60
2021/12/07 10:11:53;;;;;;;0.00;0.00;;;;;;;20.14;27.28;99125.41;5113363;28;20126;-58
2021/12/07 10:14:19;;;;;;;0.00;0.00;;;;;;;20.13;27.09;99138.00;5113394;28;20047;-60
2021/12/07 10:16:47;;;;;;;0.00;0.00;;;;;;;20.13;27.40;99124.56;5112993;28;20067;-63
2021/12/07 10:19:15;;;;;;;0.00;0.00;;;;;;;20.15;27.57;99127.06;5113208;28;20050;-61
2021/12/07 10:21:43;;;;;;;0.00;0.00;;;;;;;20.12;27.45;99117.53;5112609;28;20101;-59
2021/12/07 10:24:11;;;;;;;0.00;0.00;;;;;;;20.15;27.55;99125.22;5112925;28;20039;-59
2021/12/07 10:26:40;;;;;;;0.00;0.00;;;;;;;20.16;27.37;99121.50;5112740;28;20142;-54
2021/12/07 10:29:12;;;;;;;0.57;0.57;;;;;;;20.15;27.37;99121.69;5112846;28;20043;-57
2021/12/07 10:31:46;;;;;;;0.00;0.00;;;;;;;20.17;27.38;99120.47;5112410;28;20049;-58
2021/12/07 10:34:16;;;;;;;0.00;0.00;;;;;;;20.18;27.22;99122.13;5112337;28;20535;-59
2021/12/07 10:36:44;;;;;;;0.00;0.00;;;;;;;20.15;27.39;99125.22;5112010;28;20063;-58
2021/12/07 10:39:10;;;;;;;0.00;0.00;;;;;;;20.16;27.28;99116.16;5112679;28;20098;-57
2021/12/07 10:41:39;;;;;;;0.00;0.00;;;;;;;20.13;27.44;99119.19;5112123;28;20558;-57
2021/12/07 10:44:15;;;;;;;0.00;0.00;;;;;;;20.14;27.32;99112.81;5112444;28;20047;-57
2021/12/07 10:46:52;;;;;;;0.00;0.00;;;;;;;20.13;27.40;99119.19;5111723;28;20039;-58
2021/12/07 10:49:29;;;;;;;2.45;2.35;;;;;;;20.13;27.41;99115.69;5112279;28;20051;-58
2021/12/07 10:51:57;;;;;;;0.00;0.00;;;;;;;20.17;27.33;99109.72;5112305;28;20067;-58
2021/12/07 10:54:24;;;;;;;0.00;0.00;;;;;;;20.17;27.37;99107.03;5077056;28;20053;-59
2021/12/07 10:56:51;;;;;;;0.00;0.00;;;;;;;20.18;27.15;99111.38;5112076;28;20044;-58
2021/12/07 10:59:17;;;;;;;0.00;0.00;;;;;;;20.18;27.29;99111.38;5112067;28;20392;-59
2021/12/07 11:01:47;;;;;;;0.00;0.00;;;;;;;20.18;27.35;99094.47;5112133;28;20038;-58
2021/12/07 11:04:23;;;;;;;0.00;0.00;;;;;;;20.18;27.46;99095.28;5112345;28;20480;-58
2021/12/07 11:07:14;;;;;;;0.00;0.00;;;;;;;20.18;27.30;99100.66;5111945;28;20059;-58
2021/12/07 11:09:56;;;;;;;0.00;0.00;;;;;;;20.15;27.24;99102.88;5111521;28;20047;-56
2021/12/07 11:12:22;;;;;;;0.00;0.00;;;;;;;20.18;27.44;99105.19;5112081;28;20051;-58
2021/12/07 11:14:59;;;;;;;0.00;0.00;;;;;;;20.16;27.38;99091.97;5111895;28;20140;-57
2021/12/07 11:17:34;;;;;;;0.22;0.22;;;;;;;20.19;27.41;99096.13;5111587;28;20558;-58
2021/12/07 11:20:01;;;;;;;0.00;0.00;;;;;;;20.17;27.41;99098.97;5111525;28;20127;-58
2021/12/07 11:22:31;;;;;;;0.00;0.00;;;;;;;20.18;27.56;99106.03;5111462;28;20085;-57
2021/12/07 11:25:00;;;;;;;0.00;0.00;;;;;;;20.17;27.58;99098.97;5111672;28;20048;-58
2021/12/07 11:30:14;;;;;;;0.52;0.15;;;;;;;20.13;27.67;99103.09;5111464;28;20047;-56
2021/12/07 11:32:59;;;;;;;0.00;0.00;;;;;;;20.15;27.40;99110.94;5111245;28;20048;-58
2021/12/07 11:35:33;;;;;;;0.55;0.55;;;;;;;20.13;27.66;99108.47;5111565;28;20043;-58
2021/12/07 11:38:01;;;;;;;0.00;0.00;;;;;;;20.12;27.69;99103.28;5111507;28;20518;-59
2021/12/07 11:40:37;;;;;;;0.00;0.00;;;;;;;20.07;27.57;99090.44;5111089;28;20535;-56
2021/12/07 11:43:17;;;;;;;0.00;0.00;;;;;;;20.12;27.49;99097.94;5111191;28;20122;-59
2021/12/07 11:45:44;;;;;;;0.00;0.00;;;;;;;20.12;27.44;99088.00;5103256;28;20047;-59
2021/12/07 11:48:10;;;;;;;0.00;0.00;;;;;;;20.14;27.60;99099.38;5090224;28;20040;-58
2021/12/07 11:50:38;;;;;;;0.00;0.00;;;;;;;20.13;27.43;99089.66;5090589;28;20612;-58
2021/12/07 11:53:05;;;;;;;0.80;0.80;;;;;;;20.12;27.40;99093.38;5090898;28;20594;-58
2021/12/07 11:55:31;;;;;;;0.00;0.00;;;;;;;20.12;27.44;99098.75;5090763;28;20159;-59
2021/12/07 11:57:58;;;;;;;0.10;0.10;;;;;;;20.13;27.32;99108.47;5091001;28;20044;-59
2021/12/07 12:00:29;;;;;;;0.00;0.00;;;;;;;20.10;27.74;99114.25;5090545;28;20504;-57
2021/12/07 12:02:55;;;;;;;0.08;0.08;;;;;;;20.06;27.63;99099.53;5090944;28;20423;-58
2021/12/07 12:05:21;;;;;;;0.00;0.00;;;;;;;20.02;27.64;99096.38;5090770;28;20054;-58
2021/12/07 12:07:48;;;;;;;0.00;0.00;;;;;;;20.01;27.83;99102.81;5090745;28;20128;-58
2021/12/07 12:10:17;;;;;;;0.00;0.00;;;;;;;20.00;27.71;99102.97;5090837;28;20040;-59
2021/12/07 12:12:56;;;;;;;0.00;0.00;;;;;;;20.01;27.78;99091.22;5090425;28;20423;-57
2021/12/07 12:15:59;;;;;;;0.05;0.05;;;;;;;20.06;27.75;99093.34;5090865;28;20531;-59
2021/12/07 12:18:45;;;;;;;0.00;0.00;;;;;;;20.06;27.76;99107.56;5072395;28;20343;-56
2021/12/07 12:21:39;;;;;;;0.00;0.00;;;;;;;20.04;27.84;99115.00;5090943;28;20048;-58
2021/12/07 12:24:19;;;;;;;0.00;0.00;;;;;;;20.04;27.76;99115.00;5090870;28;20113;-57
2021/12/07 12:26:45;;;;;;;0.00;0.00;;;;;;;20.06;27.86;99112.13;5090467;28;20393;-60
2021/12/07 12:29:20;;;;;;;0.00;0.00;;;;;;;20.02;27.92;99111.69;5090724;28;20124;-58
2021/12/07 12:31:57;;;;;;;0.10;0.10;;;;;;;20.02;27.94;99119.72;5090063;28;20086;-59
2021/12/07 12:34:28;;;;;;;0.00;0.00;;;;;;;20.03;27.86;99124.09;5090674;28;20052;-58
2021/12/07 12:37:00;;;;;;;0.00;0.00;;;;;;;20.02;27.83;99122.41;5090146;28;20599;-58
2021/12/07 12:39:44;;;;;;;3.40;3.13;;;;;;;20.02;27.78;99127.78;5090572;28;20090;-58
2021/12/07 12:42:15;;;;;;;0.00;0.00;;;;;;;20.02;27.83;99133.97;5090735;28;20077;-58
2021/12/07 12:44:41;;;;;;;0.00;0.00;;;;;;;20.03;27.88;99124.09;5089974;28;20069;-58
2021/12/07 12:47:07;;;;;;;0.00;0.00;;;;;;;20.02;28.09;99125.09;5109909;28;20050;-58
2021/12/07 12:49:41;;;;;;;0.00;0.00;;;;;;;20.04;27.91;99131.13;5110488;28;20484;-59
2021/12/07 12:52:08;;;;;;;0.00;0.00;;;;;;;20.03;27.98;99124.91;5092588;28;20070;-58
2021/12/07 12:54:52;;;;;;;0.00;0.00;;;;;;;20.07;27.77;99125.34;5092575;28;20134;-57
2021/12/07 12:57:18;;;;;;;0.00;0.00;;;;;;;20.10;27.84;99127.66;5110675;28;20049;-58
2021/12/07 12:59:47;;;;;;;0.00;0.00;;;;;;;20.06;27.86;99129.06;5111631;28;20490;-57
2021/12/07 13:02:14;;;;;;;0.08;0.05;;;;;;;20.10;27.90;99124.97;5113988;28;20043;-58
2021/12/07 13:04:40;;;;;;;0.00;0.00;;;;;;;20.13;27.80;99129.94;5114085;28;20067;-58
2021/12/07 13:09:40;;;;;;;0.00;0.00;;;;;;;20.06;27.93;99120.19;5113548;28;20093;-58
2021/12/07 13:12:19;;;;;;;0.00;0.00;;;;;;;20.06;27.83;99118.31;5113887;28;20047;-58
2021/12/07 13:15:01;;;;;;;0.00;0.00;;;;;;;20.06;27.96;99115.63;5095357;28;20777;-58
2021/12/07 13:17:40;;;;;;;0.00;0.00;;;;;;;20.06;28.12;99104.06;5114081;28;20099;-58
2021/12/07 13:20:32;;;;;;;0.00;0.00;;;;;;;20.09;28.10;99111.72;5114163;28;20046;-58
2021/12/07 13:23:12;;;;;;;0.00;0.00;;;;;;;20.08;28.00;99116.28;5113848;28;20042;-58
2021/12/07 13:25:42;;;;;;;0.00;0.00;;;;;;;20.08;28.04;99118.97;5114025;28;20044;-58
2021/12/07 13:28:25;;;;;;;0.43;0.43;;;;;;;20.06;28.00;99104.88;5114114;28;20103;-59
2021/12/07 13:30:52;;;;;;;0.93;0.93;;;;;;;20.06;28.06;99112.94;5113439;28;20051;-58